sensor_id;sensor_type;location;lat;lon;timestamp;temperature;humidity
12726;DHT22;6427;49.754;6.106;2022-12-24T00:01:40;10.60;99.90
12726;DHT22;6427;49.754;6.106;2022-12-24T00:04:09;10.60;99.90
12726;DHT22;6427;49.754;6.106;2022-12-24T00:06:37;10.50;99.90
12726;DHT22;6427;49.754;6.106;2022-12-24T00:09:04;10.50;99.90
12726;DHT22;6427;49.754;6.106;2022-12-24T00:11:32;10.50;99.90
12726;DHT22;6427;49.754;6.106;2022-12-24T00:14:00;10.50;99.90
12726;DHT22;6427;49.754;6.106;2022-12-24T00:16:28;10.50;99.90
12726;DHT22;6427;49.754;6.106;2022-12-24T00:18:55;10.50;99.90
12726;DHT22;6427;49.754;6.106;2022-12-24T00:21:23;10.60;99.90
12726;DHT22;6427;49.754;6.106;2022-12-24T00:23:50;10.60;99.90
12726;DHT22;6427;49.754;6.106;2022-12-24T00:26:19;10.60;99.90
12726;DHT22;6427;49.754;6.106;2022-12-24T00:28:46;10.50;99.90
12726;DHT22;6427;49.754;6.106;2022-12-24T00:31:15;10.60;99.90
12726;DHT22;6427;49.754;6.106;2022-12-24T00:33:43;10.60;99.90
12726;DHT22;6427;49.754;6.106;2022-12-24T00:36:10;10.60;99.90
12726;DHT22;6427;49.754;6.106;2022-12-24T00:38:38;10.60;99.90
12726;DHT22;6427;49.754;6.106;2022-12-24T00:41:06;10.60;99.90
12726;DHT22;6427;49.754;6.106;2022-12-24T00:43:33;10.60;99.90
12726;DHT22;6427;49.754;6.106;2022-12-24T00:46:01;10.50;99.90
12726;DHT22;6427;49.754;6.106;2022-12-24T00:48:28;10.50;99.90
12726;DHT22;6427;49.754;6.106;2022-12-24T00:50:56;10.50;99.90
12726;DHT22;6427;49.754;6.106;2022-12-24T00:53:24;10.50;99.90
12726;DHT22;6427;49.754;6.106;2022-12-24T00:55:52;10.50;99.90
12726;DHT22;6427;49.754;6.106;2022-12-24T00:58:20;10.50;99.90
12726;DHT22;6427;49.754;6.106;2022-12-24T01:00:48;10.50;99.90
12726;DHT22;6427;49.754;6.106;2022-12-24T01:03:15;10.50;99.90
12726;DHT22;6427;49.754;6.106;2022-12-24T01:05:43;10.50;99.90
12726;DHT22;6427;49.754;6.106;2022-12-24T01:08:11;10.50;99.90
12726;DHT22;6427;49.754;6.106;2022-12-24T01:10:39;10.50;99.90
12726;DHT22;6427;49.754;6.106;2022-12-24T01:13:07;10.50;99.90
12726;DHT22;6427;49.754;6.106;2022-12-24T01:15:35;10.50;99.90
12726;DHT22;6427;49.754;6.106;2022-12-24T01:18:02;10.50;99.90
12726;DHT22;6427;49.754;6.106;2022-12-24T01:20:31;10.50;99.90
12726;DHT22;6427;49.754;6.106;2022-12-24T01:22:58;10.50;99.90
12726;DHT22;6427;49.754;6.106;2022-12-24T01:25:26;10.50;99.90
12726;DHT22;6427;49.754;6.106;2022-12-24T01:27:54;10.80;99.90
12726;DHT22;6427;49.754;6.106;2022-12-24T01:30:22;10.80;99.90
12726;DHT22;6427;49.754;6.106;2022-12-24T01:32:49;11.10;99.90
12726;DHT22;6427;49.754;6.106;2022-12-24T01:35:17;11.00;99.90
12726;DHT22;6427;49.754;6.106;2022-12-24T01:37:45;11.00;99.90
12726;DHT22;6427;49.754;6.106;2022-12-24T01:40:14;11.00;99.90
12726;DHT22;6427;49.754;6.106;2022-12-24T01:42:58;11.00;99.90
12726;DHT22;6427;49.754;6.106;2022-12-24T01:50:52;10.90;99.90
12726;DHT22;6427;49.754;6.106;2022-12-24T01:53:17;10.90;99.90
12726;DHT22;6427;49.754;6.106;2022-12-24T01:55:45;10.90;99.90
12726;DHT22;6427;49.754;6.106;2022-12-24T01:58:13;10.90;99.90
12726;DHT22;6427;49.754;6.106;2022-12-24T02:00:40;10.90;99.90
12726;DHT22;6427;49.754;6.106;2022-12-24T02:03:07;10.90;99.90
12726;DHT22;6427;49.754;6.106;2022-12-24T02:08:06;10.90;99.90
12726;DHT22;6427;49.754;6.106;2022-12-24T02:10:34;10.90;99.90
12726;DHT22;6427;49.754;6.106;2022-12-24T02:13:02;11.10;99.90
12726;DHT22;6427;49.754;6.106;2022-12-24T02:15:36;11.10;99.90
12726;DHT22;6427;49.754;6.106;2022-12-24T02:18:06;11.10;99.90
12726;DHT22;6427;49.754;6.106;2022-12-24T02:29:06;10.80;99.90
12726;DHT22;6427;49.754;6.106;2022-12-24T02:31:34;10.80;99.90
12726;DHT22;6427;49.754;6.106;2022-12-24T02:34:03;10.70;99.90
12726;DHT22;6427;49.754;6.106;2022-12-24T02:36:45;10.70;99.90
12726;DHT22;6427;49.754;6.106;2022-12-24T02:39:08;10.70;99.90
12726;DHT22;6427;49.754;6.106;2022-12-24T02:41:36;10.70;99.90
12726;DHT22;6427;49.754;6.106;2022-12-24T02:44:22;10.70;99.90
12726;DHT22;6427;49.754;6.106;2022-12-24T02:46:49;10.70;99.90
12726;DHT22;6427;49.754;6.106;2022-12-24T02:49:16;10.70;99.90
12726;DHT22;6427;49.754;6.106;2022-12-24T02:51:44;10.70;99.90
12726;DHT22;6427;49.754;6.106;2022-12-24T02:54:12;10.70;99.90
12726;DHT22;6427;49.754;6.106;2022-12-24T02:57:12;10.70;99.90
12726;DHT22;6427;49.754;6.106;2022-12-24T02:59:43;10.70;99.90
12726;DHT22;6427;49.754;6.106;2022-12-24T03:02:35;10.80;99.90
12726;DHT22;6427;49.754;6.106;2022-12-24T03:05:10;10.80;99.90
12726;DHT22;6427;49.754;6.106;2022-12-24T03:07:43;10.70;99.90
12726;DHT22;6427;49.754;6.106;2022-12-24T03:12:43;10.80;99.90
12726;DHT22;6427;49.754;6.106;2022-12-24T03:15:07;10.80;99.90
12726;DHT22;6427;49.754;6.106;2022-12-24T03:17:36;10.90;99.90
12726;DHT22;6427;49.754;6.106;2022-12-24T03:20:03;10.90;99.90
12726;DHT22;6427;49.754;6.106;2022-12-24T03:22:30;10.90;99.90
12726;DHT22;6427;49.754;6.106;2022-12-24T03:24:57;10.90;99.90
12726;DHT22;6427;49.754;6.106;2022-12-24T03:27:28;11.10;99.90
12726;DHT22;6427;49.754;6.106;2022-12-24T03:29:52;11.20;99.90
12726;DHT22;6427;49.754;6.106;2022-12-24T03:32:24;11.10;99.90
12726;DHT22;6427;49.754;6.106;2022-12-24T03:34:51;11.30;99.90
12726;DHT22;6427;49.754;6.106;2022-12-24T03:37:18;11.30;99.90
12726;DHT22;6427;49.754;6.106;2022-12-24T03:39:46;11.30;99.90
12726;DHT22;6427;49.754;6.106;2022-12-24T03:42:13;11.20;99.90
12726;DHT22;6427;49.754;6.106;2022-12-24T03:44:41;11.20;99.90
12726;DHT22;6427;49.754;6.106;2022-12-24T03:47:09;11.30;99.90
12726;DHT22;6427;49.754;6.106;2022-12-24T03:49:37;11.30;99.90
12726;DHT22;6427;49.754;6.106;2022-12-24T03:52:05;11.30;99.90
12726;DHT22;6427;49.754;6.106;2022-12-24T03:54:33;11.30;99.90
12726;DHT22;6427;49.754;6.106;2022-12-24T03:57:00;11.30;99.90
12726;DHT22;6427;49.754;6.106;2022-12-24T03:59:28;11.40;99.90
12726;DHT22;6427;49.754;6.106;2022-12-24T04:01:56;11.40;99.90
12726;DHT22;6427;49.754;6.106;2022-12-24T04:04:23;11.40;99.90
12726;DHT22;6427;49.754;6.106;2022-12-24T04:06:52;11.30;99.90
12726;DHT22;6427;49.754;6.106;2022-12-24T04:09:19;11.20;99.90
12726;DHT22;6427;49.754;6.106;2022-12-24T04:11:47;11.20;99.90
12726;DHT22;6427;49.754;6.106;2022-12-24T04:14:15;11.10;99.90
12726;DHT22;6427;49.754;6.106;2022-12-24T04:16:43;11.10;99.90
12726;DHT22;6427;49.754;6.106;2022-12-24T04:19:10;11.10;99.90
12726;DHT22;6427;49.754;6.106;2022-12-24T04:21:39;11.10;99.90
12726;DHT22;6427;49.754;6.106;2022-12-24T04:24:07;11.10;99.90
12726;DHT22;6427;49.754;6.106;2022-12-24T04:26:34;11.00;99.90
12726;DHT22;6427;49.754;6.106;2022-12-24T04:29:02;11.00;99.90
12726;DHT22;6427;49.754;6.106;2022-12-24T04:31:31;11.00;99.90
12726;DHT22;6427;49.754;6.106;2022-12-24T04:33:58;11.00;99.90
12726;DHT22;6427;49.754;6.106;2022-12-24T04:36:26;11.00;99.90
12726;DHT22;6427;49.754;6.106;2022-12-24T04:38:54;11.00;99.90
12726;DHT22;6427;49.754;6.106;2022-12-24T04:41:22;11.00;99.90
12726;DHT22;6427;49.754;6.106;2022-12-24T04:43:50;11.00;99.90
12726;DHT22;6427;49.754;6.106;2022-12-24T04:46:19;11.00;99.90
12726;DHT22;6427;49.754;6.106;2022-12-24T04:48:45;11.10;99.90
12726;DHT22;6427;49.754;6.106;2022-12-24T04:51:14;11.10;99.90
12726;DHT22;6427;49.754;6.106;2022-12-24T04:53:42;11.00;99.90
12726;DHT22;6427;49.754;6.106;2022-12-24T04:56:15;11.10;99.90
12726;DHT22;6427;49.754;6.106;2022-12-24T04:58:41;11.10;99.90
12726;DHT22;6427;49.754;6.106;2022-12-24T05:01:11;11.30;99.90
12726;DHT22;6427;49.754;6.106;2022-12-24T05:03:36;11.40;99.90
12726;DHT22;6427;49.754;6.106;2022-12-24T05:06:04;11.30;99.90
12726;DHT22;6427;49.754;6.106;2022-12-24T05:08:31;11.30;99.90
12726;DHT22;6427;49.754;6.106;2022-12-24T05:10:59;11.20;99.90
12726;DHT22;6427;49.754;6.106;2022-12-24T05:13:26;11.20;99.90
12726;DHT22;6427;49.754;6.106;2022-12-24T05:15:54;11.40;99.90
12726;DHT22;6427;49.754;6.106;2022-12-24T05:18:23;11.30;99.90
12726;DHT22;6427;49.754;6.106;2022-12-24T05:20:50;11.30;99.90
12726;DHT22;6427;49.754;6.106;2022-12-24T05:23:19;11.30;99.90
12726;DHT22;6427;49.754;6.106;2022-12-24T05:26:04;11.20;99.90
12726;DHT22;6427;49.754;6.106;2022-12-24T05:28:53;11.20;99.90
12726;DHT22;6427;49.754;6.106;2022-12-24T05:31:20;11.10;99.90
12726;DHT22;6427;49.754;6.106;2022-12-24T05:33:48;11.30;99.90
12726;DHT22;6427;49.754;6.106;2022-12-24T05:36:16;11.30;99.90
12726;DHT22;6427;49.754;6.106;2022-12-24T05:38:44;11.20;99.90
12726;DHT22;6427;49.754;6.106;2022-12-24T05:41:11;11.20;99.90
12726;DHT22;6427;49.754;6.106;2022-12-24T05:43:39;11.20;99.90
12726;DHT22;6427;49.754;6.106;2022-12-24T05:46:07;11.20;99.90
12726;DHT22;6427;49.754;6.106;2022-12-24T05:48:34;11.10;99.90
12726;DHT22;6427;49.754;6.106;2022-12-24T05:51:06;11.10;99.90
12726;DHT22;6427;49.754;6.106;2022-12-24T05:53:33;11.10;99.90
12726;DHT22;6427;49.754;6.106;2022-12-24T05:56:05;11.10;99.90
12726;DHT22;6427;49.754;6.106;2022-12-24T05:58:32;11.10;99.90
12726;DHT22;6427;49.754;6.106;2022-12-24T06:01:00;11.10;99.90
12726;DHT22;6427;49.754;6.106;2022-12-24T06:03:27;11.10;99.90
12726;DHT22;6427;49.754;6.106;2022-12-24T06:05:59;11.10;99.90
12726;DHT22;6427;49.754;6.106;2022-12-24T06:08:26;11.10;99.90
12726;DHT22;6427;49.754;6.106;2022-12-24T06:10:54;11.10;99.90
12726;DHT22;6427;49.754;6.106;2022-12-24T06:13:21;11.30;99.90
12726;DHT22;6427;49.754;6.106;2022-12-24T06:15:48;11.30;99.90
12726;DHT22;6427;49.754;6.106;2022-12-24T06:18:16;11.30;99.90
12726;DHT22;6427;49.754;6.106;2022-12-24T06:20:44;11.20;99.90
12726;DHT22;6427;49.754;6.106;2022-12-24T06:23:12;11.20;99.90
12726;DHT22;6427;49.754;6.106;2022-12-24T06:25:39;11.20;99.90
12726;DHT22;6427;49.754;6.106;2022-12-24T06:28:07;11.20;99.90
12726;DHT22;6427;49.754;6.106;2022-12-24T06:30:35;11.10;99.90
12726;DHT22;6427;49.754;6.106;2022-12-24T06:33:02;11.10;99.90
12726;DHT22;6427;49.754;6.106;2022-12-24T06:35:31;11.30;99.90
12726;DHT22;6427;49.754;6.106;2022-12-24T06:37:59;11.20;99.90
12726;DHT22;6427;49.754;6.106;2022-12-24T06:40:27;11.20;99.90
12726;DHT22;6427;49.754;6.106;2022-12-24T06:42:54;11.20;99.90
12726;DHT22;6427;49.754;6.106;2022-12-24T06:45:22;11.10;99.90
12726;DHT22;6427;49.754;6.106;2022-12-24T06:47:49;11.10;99.90
12726;DHT22;6427;49.754;6.106;2022-12-24T06:50:17;11.10;99.90
12726;DHT22;6427;49.754;6.106;2022-12-24T06:52:45;11.10;99.90
12726;DHT22;6427;49.754;6.106;2022-12-24T06:55:12;11.10;99.90
12726;DHT22;6427;49.754;6.106;2022-12-24T06:57:40;11.10;99.90
12726;DHT22;6427;49.754;6.106;2022-12-24T07:00:08;11.00;99.90
12726;DHT22;6427;49.754;6.106;2022-12-24T07:02:38;11.00;99.90
12726;DHT22;6427;49.754;6.106;2022-12-24T07:05:02;11.00;99.90
12726;DHT22;6427;49.754;6.106;2022-12-24T07:07:31;10.90;99.90
12726;DHT22;6427;49.754;6.106;2022-12-24T07:09:58;10.90;99.90
12726;DHT22;6427;49.754;6.106;2022-12-24T07:12:26;10.90;99.90
12726;DHT22;6427;49.754;6.106;2022-12-24T07:14:54;10.90;99.90
12726;DHT22;6427;49.754;6.106;2022-12-24T07:17:22;10.90;99.90
12726;DHT22;6427;49.754;6.106;2022-12-24T07:19:50;10.90;99.90
12726;DHT22;6427;49.754;6.106;2022-12-24T07:22:17;10.90;99.90
12726;DHT22;6427;49.754;6.106;2022-12-24T07:24:45;10.90;99.90
12726;DHT22;6427;49.754;6.106;2022-12-24T07:27:12;10.90;99.90
12726;DHT22;6427;49.754;6.106;2022-12-24T07:29:41;10.90;99.90
12726;DHT22;6427;49.754;6.106;2022-12-24T07:32:08;10.80;99.90
12726;DHT22;6427;49.754;6.106;2022-12-24T07:34:36;10.80;99.90
12726;DHT22;6427;49.754;6.106;2022-12-24T07:37:04;10.80;99.90
12726;DHT22;6427;49.754;6.106;2022-12-24T07:39:31;10.80;99.90
12726;DHT22;6427;49.754;6.106;2022-12-24T07:41:59;10.80;99.90
12726;DHT22;6427;49.754;6.106;2022-12-24T07:44:28;10.80;99.90
12726;DHT22;6427;49.754;6.106;2022-12-24T07:46:55;10.80;99.90
12726;DHT22;6427;49.754;6.106;2022-12-24T07:49:23;10.80;99.90
12726;DHT22;6427;49.754;6.106;2022-12-24T07:51:51;10.80;99.90
12726;DHT22;6427;49.754;6.106;2022-12-24T07:54:19;10.80;99.90
12726;DHT22;6427;49.754;6.106;2022-12-24T07:56:47;10.80;99.90
12726;DHT22;6427;49.754;6.106;2022-12-24T07:59:14;10.80;99.90
12726;DHT22;6427;49.754;6.106;2022-12-24T08:01:42;11.10;99.90
12726;DHT22;6427;49.754;6.106;2022-12-24T08:04:11;11.10;99.90
12726;DHT22;6427;49.754;6.106;2022-12-24T08:06:39;11.00;99.90
12726;DHT22;6427;49.754;6.106;2022-12-24T08:09:06;11.00;99.90
12726;DHT22;6427;49.754;6.106;2022-12-24T08:11:34;11.00;99.90
12726;DHT22;6427;49.754;6.106;2022-12-24T08:14:02;11.00;99.90
12726;DHT22;6427;49.754;6.106;2022-12-24T08:16:29;11.00;99.90
12726;DHT22;6427;49.754;6.106;2022-12-24T08:18:57;11.00;99.90
12726;DHT22;6427;49.754;6.106;2022-12-24T08:21:24;11.00;99.90
12726;DHT22;6427;49.754;6.106;2022-12-24T08:23:52;11.00;99.90
12726;DHT22;6427;49.754;6.106;2022-12-24T08:26:19;11.20;99.90
12726;DHT22;6427;49.754;6.106;2022-12-24T08:28:47;11.20;99.90
12726;DHT22;6427;49.754;6.106;2022-12-24T08:31:15;11.20;99.90
12726;DHT22;6427;49.754;6.106;2022-12-24T08:33:43;11.20;99.90
12726;DHT22;6427;49.754;6.106;2022-12-24T08:36:10;11.20;99.90
12726;DHT22;6427;49.754;6.106;2022-12-24T08:38:38;11.10;99.90
12726;DHT22;6427;49.754;6.106;2022-12-24T08:41:06;11.10;99.90
12726;DHT22;6427;49.754;6.106;2022-12-24T08:43:34;11.10;99.90
12726;DHT22;6427;49.754;6.106;2022-12-24T08:46:02;11.00;99.90
12726;DHT22;6427;49.754;6.106;2022-12-24T08:48:30;11.10;99.90
12726;DHT22;6427;49.754;6.106;2022-12-24T08:50:58;11.00;99.90
12726;DHT22;6427;49.754;6.106;2022-12-24T08:53:25;11.00;99.90
12726;DHT22;6427;49.754;6.106;2022-12-24T08:55:59;11.00;99.90
12726;DHT22;6427;49.754;6.106;2022-12-24T08:58:20;11.00;99.90
12726;DHT22;6427;49.754;6.106;2022-12-24T09:00:48;11.30;99.90
12726;DHT22;6427;49.754;6.106;2022-12-24T09:03:16;11.30;99.90
12726;DHT22;6427;49.754;6.106;2022-12-24T09:05:44;11.20;99.90
12726;DHT22;6427;49.754;6.106;2022-12-24T09:08:11;11.20;99.90
12726;DHT22;6427;49.754;6.106;2022-12-24T09:10:39;11.20;99.90
12726;DHT22;6427;49.754;6.106;2022-12-24T09:13:07;11.20;99.90
12726;DHT22;6427;49.754;6.106;2022-12-24T09:15:35;11.20;99.90
12726;DHT22;6427;49.754;6.106;2022-12-24T09:18:02;11.20;99.90
12726;DHT22;6427;49.754;6.106;2022-12-24T09:20:30;11.20;99.90
12726;DHT22;6427;49.754;6.106;2022-12-24T09:22:57;11.20;99.90
12726;DHT22;6427;49.754;6.106;2022-12-24T09:25:25;11.20;99.90
12726;DHT22;6427;49.754;6.106;2022-12-24T09:27:53;11.20;99.90
12726;DHT22;6427;49.754;6.106;2022-12-24T09:30:21;11.30;99.90
12726;DHT22;6427;49.754;6.106;2022-12-24T09:32:50;11.20;99.90
12726;DHT22;6427;49.754;6.106;2022-12-24T09:35:16;11.30;99.90
12726;DHT22;6427;49.754;6.106;2022-12-24T09:37:43;11.30;99.90
12726;DHT22;6427;49.754;6.106;2022-12-24T09:40:17;11.30;99.90
12726;DHT22;6427;49.754;6.106;2022-12-24T09:42:47;11.30;99.90
12726;DHT22;6427;49.754;6.106;2022-12-24T09:45:15;11.30;99.90
12726;DHT22;6427;49.754;6.106;2022-12-24T09:47:41;11.40;99.90
12726;DHT22;6427;49.754;6.106;2022-12-24T09:52:54;11.50;99.90
12726;DHT22;6427;49.754;6.106;2022-12-24T09:55:31;11.50;99.90
12726;DHT22;6427;49.754;6.106;2022-12-24T09:57:55;11.50;99.90
12726;DHT22;6427;49.754;6.106;2022-12-24T10:00:24;11.60;99.90
12726;DHT22;6427;49.754;6.106;2022-12-24T10:02:50;11.60;99.90
12726;DHT22;6427;49.754;6.106;2022-12-24T10:05:22;11.90;99.90
12726;DHT22;6427;49.754;6.106;2022-12-24T10:08:00;11.90;99.90
12726;DHT22;6427;49.754;6.106;2022-12-24T10:10:35;12.00;99.90
12726;DHT22;6427;49.754;6.106;2022-12-24T10:16:06;12.20;99.90
12726;DHT22;6427;49.754;6.106;2022-12-24T10:24:12;12.10;99.90
12726;DHT22;6427;49.754;6.106;2022-12-24T10:26:44;12.10;99.90
12726;DHT22;6427;49.754;6.106;2022-12-24T10:29:22;12.10;99.90
12726;DHT22;6427;49.754;6.106;2022-12-24T10:34:37;12.10;99.90
12726;DHT22;6427;49.754;6.106;2022-12-24T10:37:02;12.10;99.90
12726;DHT22;6427;49.754;6.106;2022-12-24T10:39:30;12.10;99.90
12726;DHT22;6427;49.754;6.106;2022-12-24T10:41:58;12.10;99.90
12726;DHT22;6427;49.754;6.106;2022-12-24T10:44:27;12.10;99.90
12726;DHT22;6427;49.754;6.106;2022-12-24T10:46:53;12.10;99.90
12726;DHT22;6427;49.754;6.106;2022-12-24T10:52:01;12.10;99.90
12726;DHT22;6427;49.754;6.106;2022-12-24T10:54:25;12.10;99.90
12726;DHT22;6427;49.754;6.106;2022-12-24T10:56:57;12.00;99.90
12726;DHT22;6427;49.754;6.106;2022-12-24T11:02:23;12.00;99.90
12726;DHT22;6427;49.754;6.106;2022-12-24T11:04:35;12.00;99.90
12726;DHT22;6427;49.754;6.106;2022-12-24T11:07:04;12.00;99.90
12726;DHT22;6427;49.754;6.106;2022-12-24T11:09:35;12.00;99.90
12726;DHT22;6427;49.754;6.106;2022-12-24T11:12:02;12.00;99.90
12726;DHT22;6427;49.754;6.106;2022-12-24T11:14:33;12.10;99.90
12726;DHT22;6427;49.754;6.106;2022-12-24T11:16:56;12.30;99.90
12726;DHT22;6427;49.754;6.106;2022-12-24T11:19:33;12.30;99.90
12726;DHT22;6427;49.754;6.106;2022-12-24T11:22:01;12.30;99.90
12726;DHT22;6427;49.754;6.106;2022-12-24T11:24:34;12.30;99.90
12726;DHT22;6427;49.754;6.106;2022-12-24T11:27:26;12.30;99.90
12726;DHT22;6427;49.754;6.106;2022-12-24T11:29:50;12.30;99.90
12726;DHT22;6427;49.754;6.106;2022-12-24T11:32:19;12.50;99.90
12726;DHT22;6427;49.754;6.106;2022-12-24T11:34:46;12.50;99.90
12726;DHT22;6427;49.754;6.106;2022-12-24T11:37:20;12.60;99.90
12726;DHT22;6427;49.754;6.106;2022-12-24T11:42:33;12.70;99.90
12726;DHT22;6427;49.754;6.106;2022-12-24T11:45:00;13.00;99.90
12726;DHT22;6427;49.754;6.106;2022-12-24T11:47:35;12.80;99.90
12726;DHT22;6427;49.754;6.106;2022-12-24T11:50:25;12.80;99.90
12726;DHT22;6427;49.754;6.106;2022-12-24T11:53:10;12.70;99.90
12726;DHT22;6427;49.754;6.106;2022-12-24T11:55:50;12.60;99.90
12726;DHT22;6427;49.754;6.106;2022-12-24T11:58:49;12.60;99.90
12726;DHT22;6427;49.754;6.106;2022-12-24T12:02:12;12.50;99.90
12726;DHT22;6427;49.754;6.106;2022-12-24T12:03:53;12.40;99.90
12726;DHT22;6427;49.754;6.106;2022-12-24T12:06:25;12.40;99.90
12726;DHT22;6427;49.754;6.106;2022-12-24T12:08:52;12.30;99.90
12726;DHT22;6427;49.754;6.106;2022-12-24T12:11:18;12.30;99.90
12726;DHT22;6427;49.754;6.106;2022-12-24T12:13:46;12.30;99.90
12726;DHT22;6427;49.754;6.106;2022-12-24T12:18:43;12.30;99.90
12726;DHT22;6427;49.754;6.106;2022-12-24T12:21:11;12.30;99.90
12726;DHT22;6427;49.754;6.106;2022-12-24T12:26:18;12.30;99.90
12726;DHT22;6427;49.754;6.106;2022-12-24T12:28:43;12.50;99.90
12726;DHT22;6427;49.754;6.106;2022-12-24T12:31:10;12.50;99.90
12726;DHT22;6427;49.754;6.106;2022-12-24T12:33:40;12.70;99.90
12726;DHT22;6427;49.754;6.106;2022-12-24T12:36:07;12.70;99.90
12726;DHT22;6427;49.754;6.106;2022-12-24T12:38:34;12.60;99.90
12726;DHT22;6427;49.754;6.106;2022-12-24T12:43:57;12.70;99.90
12726;DHT22;6427;49.754;6.106;2022-12-24T12:46:34;12.70;99.90
12726;DHT22;6427;49.754;6.106;2022-12-24T12:49:06;12.50;99.90
12726;DHT22;6427;49.754;6.106;2022-12-24T12:51:34;12.40;99.90
12726;DHT22;6427;49.754;6.106;2022-12-24T12:54:27;12.30;99.90
12726;DHT22;6427;49.754;6.106;2022-12-24T12:56:51;12.40;99.90
12726;DHT22;6427;49.754;6.106;2022-12-24T12:59:37;12.20;99.90
12726;DHT22;6427;49.754;6.106;2022-12-24T13:02:16;12.20;99.90
12726;DHT22;6427;49.754;6.106;2022-12-24T13:07:36;12.10;99.90
12726;DHT22;6427;49.754;6.106;2022-12-24T13:10:12;12.10;99.90
12726;DHT22;6427;49.754;6.106;2022-12-24T13:12:48;12.30;99.90
12726;DHT22;6427;49.754;6.106;2022-12-24T13:15:37;12.50;99.90
12726;DHT22;6427;49.754;6.106;2022-12-24T13:21:12;12.40;99.90
12726;DHT22;6427;49.754;6.106;2022-12-24T13:23:34;12.60;99.90
12726;DHT22;6427;49.754;6.106;2022-12-24T13:26:02;12.80;99.90
12726;DHT22;6427;49.754;6.106;2022-12-24T13:28:30;12.70;99.90
12726;DHT22;6427;49.754;6.106;2022-12-24T13:36:08;12.20;99.90
12726;DHT22;6427;49.754;6.106;2022-12-24T13:38:52;12.20;99.90
12726;DHT22;6427;49.754;6.106;2022-12-24T13:46:53;12.00;99.90
12726;DHT22;6427;49.754;6.106;2022-12-24T13:49:45;11.90;99.90
12726;DHT22;6427;49.754;6.106;2022-12-24T13:52:14;11.90;99.90
12726;DHT22;6427;49.754;6.106;2022-12-24T14:02:59;11.70;99.90
12726;DHT22;6427;49.754;6.106;2022-12-24T14:05:36;11.70;99.90
12726;DHT22;6427;49.754;6.106;2022-12-24T14:08:08;11.70;99.90
12726;DHT22;6427;49.754;6.106;2022-12-24T14:10:41;11.90;99.90
12726;DHT22;6427;49.754;6.106;2022-12-24T14:13:46;11.90;99.90
12726;DHT22;6427;49.754;6.106;2022-12-24T14:18:20;11.80;99.90
12726;DHT22;6427;49.754;6.106;2022-12-24T14:20:50;12.00;99.90
12726;DHT22;6427;49.754;6.106;2022-12-24T14:23:27;12.20;99.90
12726;DHT22;6427;49.754;6.106;2022-12-24T14:25:51;12.10;99.90
12726;DHT22;6427;49.754;6.106;2022-12-24T14:28:19;12.10;99.90
12726;DHT22;6427;49.754;6.106;2022-12-24T14:30:46;11.90;99.90
12726;DHT22;6427;49.754;6.106;2022-12-24T14:33:33;11.90;99.90
12726;DHT22;6427;49.754;6.106;2022-12-24T14:36:00;11.80;99.90
12726;DHT22;6427;49.754;6.106;2022-12-24T14:38:28;11.70;99.90
12726;DHT22;6427;49.754;6.106;2022-12-24T14:52:34;11.70;99.90
12726;DHT22;6427;49.754;6.106;2022-12-24T14:55:00;11.60;99.90
12726;DHT22;6427;49.754;6.106;2022-12-24T14:57:27;11.50;99.90
12726;DHT22;6427;49.754;6.106;2022-12-24T14:59:56;11.50;99.90
12726;DHT22;6427;49.754;6.106;2022-12-24T15:05:10;11.50;99.90
12726;DHT22;6427;49.754;6.106;2022-12-24T15:07:39;11.50;99.90
12726;DHT22;6427;49.754;6.106;2022-12-24T15:10:04;11.40;99.90
12726;DHT22;6427;49.754;6.106;2022-12-24T15:12:32;11.40;99.90
12726;DHT22;6427;49.754;6.106;2022-12-24T15:15:00;11.40;99.90
12726;DHT22;6427;49.754;6.106;2022-12-24T15:17:28;11.40;99.90
12726;DHT22;6427;49.754;6.106;2022-12-24T15:19:57;11.30;99.90
12726;DHT22;6427;49.754;6.106;2022-12-24T15:22:27;11.30;99.90
12726;DHT22;6427;49.754;6.106;2022-12-24T15:24:53;11.30;99.90
12726;DHT22;6427;49.754;6.106;2022-12-24T15:27:22;11.30;99.90
12726;DHT22;6427;49.754;6.106;2022-12-24T15:29:50;11.30;99.90
12726;DHT22;6427;49.754;6.106;2022-12-24T15:32:17;11.50;99.90
12726;DHT22;6427;49.754;6.106;2022-12-24T15:34:54;11.50;99.90
12726;DHT22;6427;49.754;6.106;2022-12-24T15:37:27;11.50;99.90
12726;DHT22;6427;49.754;6.106;2022-12-24T15:39:55;11.50;99.90
12726;DHT22;6427;49.754;6.106;2022-12-24T15:42:23;11.40;99.90
12726;DHT22;6427;49.754;6.106;2022-12-24T15:45:00;11.40;99.90
12726;DHT22;6427;49.754;6.106;2022-12-24T15:47:28;11.40;99.90
12726;DHT22;6427;49.754;6.106;2022-12-24T15:49:54;11.40;99.90
12726;DHT22;6427;49.754;6.106;2022-12-24T15:52:23;11.30;99.90
12726;DHT22;6427;49.754;6.106;2022-12-24T15:54:50;11.30;99.90
12726;DHT22;6427;49.754;6.106;2022-12-24T15:57:30;11.30;99.90
12726;DHT22;6427;49.754;6.106;2022-12-24T15:59:58;11.30;99.90
12726;DHT22;6427;49.754;6.106;2022-12-24T16:02:37;11.30;99.90
12726;DHT22;6427;49.754;6.106;2022-12-24T16:05:30;11.30;99.90
12726;DHT22;6427;49.754;6.106;2022-12-24T16:10:46;11.30;99.90
12726;DHT22;6427;49.754;6.106;2022-12-24T16:13:24;11.30;99.90
12726;DHT22;6427;49.754;6.106;2022-12-24T16:15:50;11.30;99.90
12726;DHT22;6427;49.754;6.106;2022-12-24T16:18:19;11.50;99.90
12726;DHT22;6427;49.754;6.106;2022-12-24T16:20:49;11.70;99.90
12726;DHT22;6427;49.754;6.106;2022-12-24T16:23:17;11.70;99.90
12726;DHT22;6427;49.754;6.106;2022-12-24T16:25:44;11.60;99.90
12726;DHT22;6427;49.754;6.106;2022-12-24T16:28:11;11.50;99.90
12726;DHT22;6427;49.754;6.106;2022-12-24T16:30:39;11.50;99.90
12726;DHT22;6427;49.754;6.106;2022-12-24T16:33:14;11.40;99.90
12726;DHT22;6427;49.754;6.106;2022-12-24T16:35:40;11.40;99.90
12726;DHT22;6427;49.754;6.106;2022-12-24T16:38:08;11.40;99.90
12726;DHT22;6427;49.754;6.106;2022-12-24T16:40:36;11.30;99.90
12726;DHT22;6427;49.754;6.106;2022-12-24T16:43:04;11.20;99.90
12726;DHT22;6427;49.754;6.106;2022-12-24T16:45:50;11.20;99.90
12726;DHT22;6427;49.754;6.106;2022-12-24T16:48:21;11.20;99.90
12726;DHT22;6427;49.754;6.106;2022-12-24T16:50:48;11.10;99.90
12726;DHT22;6427;49.754;6.106;2022-12-24T16:53:17;11.10;99.90
12726;DHT22;6427;49.754;6.106;2022-12-24T16:55:45;11.00;99.90
12726;DHT22;6427;49.754;6.106;2022-12-24T16:58:13;11.00;99.90
12726;DHT22;6427;49.754;6.106;2022-12-24T17:00:40;11.00;99.90
12726;DHT22;6427;49.754;6.106;2022-12-24T17:03:09;11.00;99.90
12726;DHT22;6427;49.754;6.106;2022-12-24T17:05:37;10.90;99.90
12726;DHT22;6427;49.754;6.106;2022-12-24T17:08:05;11.00;99.90
12726;DHT22;6427;49.754;6.106;2022-12-24T17:10:32;11.20;99.90
12726;DHT22;6427;49.754;6.106;2022-12-24T17:13:00;11.20;99.90
12726;DHT22;6427;49.754;6.106;2022-12-24T17:15:27;11.10;99.90
12726;DHT22;6427;49.754;6.106;2022-12-24T17:17:55;11.10;99.90
12726;DHT22;6427;49.754;6.106;2022-12-24T17:20:22;11.10;99.90
12726;DHT22;6427;49.754;6.106;2022-12-24T17:22:50;11.00;99.90
12726;DHT22;6427;49.754;6.106;2022-12-24T17:25:18;11.00;99.90
12726;DHT22;6427;49.754;6.106;2022-12-24T17:27:46;11.20;99.90
12726;DHT22;6427;49.754;6.106;2022-12-24T17:30:14;11.20;99.90
12726;DHT22;6427;49.754;6.106;2022-12-24T17:32:41;11.20;99.90